sensor_id;sensor_type;location;lat;lon;timestamp;P1;durP1;ratioP1;P2;durP2;ratioP2
34481;SDS011;20720;48.886;9.388;2023-06-22T00:01:48;6.53;;;5.20;;
34481;SDS011;20720;48.886;9.388;2023-06-22T00:04:14;6.97;;;5.50;;
34481;SDS011;20720;48.886;9.388;2023-06-22T00:06:39;8.95;;;6.00;;
34481;SDS011;20720;48.886;9.388;2023-06-22T00:09:05;7.95;;;5.30;;
34481;SDS011;20720;48.886;9.388;2023-06-22T00:11:31;7.85;;;6.00;;
34481;SDS011;20720;48.886;9.388;2023-06-22T00:13:58;9.77;;;6.13;;
34481;SDS011;20720;48.886;9.388;2023-06-22T00:16:23;9.30;;;6.70;;
34481;SDS011;20720;48.886;9.388;2023-06-22T00:18:49;12.57;;;6.38;;
34481;SDS011;20720;48.886;9.388;2023-06-22T00:21:14;8.95;;;5.25;;
34481;SDS011;20720;48.886;9.388;2023-06-22T00:23:39;7.28;;;5.63;;
34481;SDS011;20720;48.886;9.388;2023-06-22T00:26:06;9.88;;;6.13;;
34481;SDS011;20720;48.886;9.388;2023-06-22T00:28:31;7.45;;;5.82;;
34481;SDS011;20720;48.886;9.388;2023-06-22T00:30:56;10.10;;;6.40;;
34481;SDS011;20720;48.886;9.388;2023-06-22T00:33:22;7.57;;;5.53;;
34481;SDS011;20720;48.886;9.388;2023-06-22T00:35:47;8.23;;;5.90;;
34481;SDS011;20720;48.886;9.388;2023-06-22T00:38:12;7.43;;;5.38;;
34481;SDS011;20720;48.886;9.388;2023-06-22T00:40:37;7.55;;;5.65;;
34481;SDS011;20720;48.886;9.388;2023-06-22T00:43:05;13.20;;;6.10;;
34481;SDS011;20720;48.886;9.388;2023-06-22T00:45:30;9.10;;;6.53;;
34481;SDS011;20720;48.886;9.388;2023-06-22T00:47:56;7.03;;;5.38;;
34481;SDS011;20720;48.886;9.388;2023-06-22T00:50:23;8.77;;;5.78;;
34481;SDS011;20720;48.886;9.388;2023-06-22T00:52:51;7.45;;;5.63;;
34481;SDS011;20720;48.886;9.388;2023-06-22T00:55:21;9.52;;;6.25;;
34481;SDS011;20720;48.886;9.388;2023-06-22T00:57:47;11.43;;;5.38;;
34481;SDS011;20720;48.886;9.388;2023-06-22T01:00:13;7.78;;;6.03;;
34481;SDS011;20720;48.886;9.388;2023-06-22T01:02:44;9.05;;;5.68;;
34481;SDS011;20720;48.886;9.388;2023-06-22T01:05:11;12.95;;;6.50;;
34481;SDS011;20720;48.886;9.388;2023-06-22T01:13:38;10.40;;;6.82;;
34481;SDS011;20720;48.886;9.388;2023-06-22T01:16:13;9.80;;;6.70;;
34481;SDS011;20720;48.886;9.388;2023-06-22T01:18:42;14.80;;;7.20;;
34481;SDS011;20720;48.886;9.388;2023-06-22T01:21:11;10.45;;;7.00;;
34481;SDS011;20720;48.886;9.388;2023-06-22T01:23:46;11.45;;;6.45;;
34481;SDS011;20720;48.886;9.388;2023-06-22T01:28:53;9.32;;;6.47;;
34481;SDS011;20720;48.886;9.388;2023-06-22T01:31:21;12.65;;;7.07;;
34481;SDS011;20720;48.886;9.388;2023-06-22T01:33:49;10.43;;;6.85;;
34481;SDS011;20720;48.886;9.388;2023-06-22T01:36:17;10.20;;;6.63;;
34481;SDS011;20720;48.886;9.388;2023-06-22T01:38:44;12.18;;;6.57;;
34481;SDS011;20720;48.886;9.388;2023-06-22T01:41:12;11.93;;;6.82;;
34481;SDS011;20720;48.886;9.388;2023-06-22T01:43:38;11.32;;;6.85;;
34481;SDS011;20720;48.886;9.388;2023-06-22T01:46:04;13.63;;;7.35;;
34481;SDS011;20720;48.886;9.388;2023-06-22T01:48:29;9.52;;;6.72;;
34481;SDS011;20720;48.886;9.388;2023-06-22T01:50:56;11.98;;;7.15;;
34481;SDS011;20720;48.886;9.388;2023-06-22T01:53:22;9.77;;;6.43;;
34481;SDS011;20720;48.886;9.388;2023-06-22T01:55:47;8.93;;;6.78;;
34481;SDS011;20720;48.886;9.388;2023-06-22T01:58:13;11.77;;;6.85;;
34481;SDS011;20720;48.886;9.388;2023-06-22T02:00:39;10.65;;;7.38;;
34481;SDS011;20720;48.886;9.388;2023-06-22T02:03:10;13.98;;;7.55;;
34481;SDS011;20720;48.886;9.388;2023-06-22T02:05:44;9.85;;;7.35;;
34481;SDS011;20720;48.886;9.388;2023-06-22T02:08:28;15.32;;;7.35;;
34481;SDS011;20720;48.886;9.388;2023-06-22T02:13:24;10.02;;;6.93;;
34481;SDS011;20720;48.886;9.388;2023-06-22T02:15:49;12.30;;;6.65;;
34481;SDS011;20720;48.886;9.388;2023-06-22T02:18:15;13.90;;;7.55;;
34481;SDS011;20720;48.886;9.388;2023-06-22T02:20:40;10.43;;;6.50;;
34481;SDS011;20720;48.886;9.388;2023-06-22T02:23:06;12.90;;;6.97;;
34481;SDS011;20720;48.886;9.388;2023-06-22T02:25:32;12.50;;;6.60;;
34481;SDS011;20720;48.886;9.388;2023-06-22T02:27:58;10.45;;;6.72;;
34481;SDS011;20720;48.886;9.388;2023-06-22T02:30:23;12.40;;;6.82;;
34481;SDS011;20720;48.886;9.388;2023-06-22T02:32:48;9.50;;;6.53;;
34481;SDS011;20720;48.886;9.388;2023-06-22T02:35:14;8.77;;;6.45;;
34481;SDS011;20720;48.886;9.388;2023-06-22T02:37:39;11.10;;;6.80;;
34481;SDS011;20720;48.886;9.388;2023-06-22T02:40:06;11.45;;;7.05;;
34481;SDS011;20720;48.886;9.388;2023-06-22T02:42:33;11.45;;;7.32;;
34481;SDS011;20720;48.886;9.388;2023-06-22T02:44:59;13.02;;;7.30;;
34481;SDS011;20720;48.886;9.388;2023-06-22T02:47:25;13.98;;;6.80;;
34481;SDS011;20720;48.886;9.388;2023-06-22T02:49:50;10.38;;;6.65;;
34481;SDS011;20720;48.886;9.388;2023-06-22T02:52:16;9.82;;;6.28;;
34481;SDS011;20720;48.886;9.388;2023-06-22T02:54:41;10.63;;;7.07;;
34481;SDS011;20720;48.886;9.388;2023-06-22T02:57:06;9.85;;;6.10;;
34481;SDS011;20720;48.886;9.388;2023-06-22T02:59:32;12.05;;;6.38;;
34481;SDS011;20720;48.886;9.388;2023-06-22T03:01:57;10.10;;;6.72;;
34481;SDS011;20720;48.886;9.388;2023-06-22T03:04:22;12.15;;;7.10;;
34481;SDS011;20720;48.886;9.388;2023-06-22T03:06:47;10.65;;;6.82;;
34481;SDS011;20720;48.886;9.388;2023-06-22T03:09:16;11.13;;;7.07;;
34481;SDS011;20720;48.886;9.388;2023-06-22T03:11:42;10.43;;;6.65;;
34481;SDS011;20720;48.886;9.388;2023-06-22T03:14:07;10.98;;;7.40;;
34481;SDS011;20720;48.886;9.388;2023-06-22T03:16:33;9.27;;;6.07;;
34481;SDS011;20720;48.886;9.388;2023-06-22T03:18:58;11.43;;;7.45;;
34481;SDS011;20720;48.886;9.388;2023-06-22T03:21:27;10.02;;;6.95;;
34481;SDS011;20720;48.886;9.388;2023-06-22T03:23:53;8.35;;;6.90;;
34481;SDS011;20720;48.886;9.388;2023-06-22T03:26:18;11.75;;;7.18;;
34481;SDS011;20720;48.886;9.388;2023-06-22T03:28:44;12.23;;;6.95;;
34481;SDS011;20720;48.886;9.388;2023-06-22T03:31:09;9.38;;;6.43;;
34481;SDS011;20720;48.886;9.388;2023-06-22T03:33:35;9.30;;;6.78;;
34481;SDS011;20720;48.886;9.388;2023-06-22T03:36:00;9.70;;;6.93;;
34481;SDS011;20720;48.886;9.388;2023-06-22T03:38:26;11.30;;;7.65;;
34481;SDS011;20720;48.886;9.388;2023-06-22T03:40:51;10.45;;;7.60;;
34481;SDS011;20720;48.886;9.388;2023-06-22T03:43:16;10.43;;;6.40;;
34481;SDS011;20720;48.886;9.388;2023-06-22T03:45:41;9.30;;;6.97;;
34481;SDS011;20720;48.886;9.388;2023-06-22T03:48:07;9.07;;;6.55;;
34481;SDS011;20720;48.886;9.388;2023-06-22T03:50:32;10.07;;;6.88;;
34481;SDS011;20720;48.886;9.388;2023-06-22T03:52:57;10.80;;;6.63;;
34481;SDS011;20720;48.886;9.388;2023-06-22T03:55:22;8.90;;;6.85;;
34481;SDS011;20720;48.886;9.388;2023-06-22T03:57:48;12.68;;;6.85;;
34481;SDS011;20720;48.886;9.388;2023-06-22T04:00:13;11.18;;;6.50;;
34481;SDS011;20720;48.886;9.388;2023-06-22T04:02:40;12.10;;;7.00;;
34481;SDS011;20720;48.886;9.388;2023-06-22T04:05:06;9.38;;;6.95;;
34481;SDS011;20720;48.886;9.388;2023-06-22T04:07:32;10.32;;;5.88;;
34481;SDS011;20720;48.886;9.388;2023-06-22T04:09:58;8.25;;;6.68;;
34481;SDS011;20720;48.886;9.388;2023-06-22T04:12:23;10.30;;;6.20;;
34481;SDS011;20720;48.886;9.388;2023-06-22T04:14:48;14.75;;;6.00;;
34481;SDS011;20720;48.886;9.388;2023-06-22T04:17:14;8.85;;;6.10;;
34481;SDS011;20720;48.886;9.388;2023-06-22T04:19:40;9.32;;;6.50;;
34481;SDS011;20720;48.886;9.388;2023-06-22T04:22:05;10.30;;;5.95;;
34481;SDS011;20720;48.886;9.388;2023-06-22T04:24:32;11.60;;;6.97;;
34481;SDS011;20720;48.886;9.388;2023-06-22T04:26:58;9.55;;;6.63;;
34481;SDS011;20720;48.886;9.388;2023-06-22T04:29:27;14.23;;;6.85;;
34481;SDS011;20720;48.886;9.388;2023-06-22T04:31:54;10.07;;;6.75;;
34481;SDS011;20720;48.886;9.388;2023-06-22T04:34:22;12.05;;;6.50;;
34481;SDS011;20720;48.886;9.388;2023-06-22T04:36:51;10.10;;;6.70;;
34481;SDS011;20720;48.886;9.388;2023-06-22T04:39:16;9.75;;;7.22;;
34481;SDS011;20720;48.886;9.388;2023-06-22T04:41:41;10.50;;;7.15;;
34481;SDS011;20720;48.886;9.388;2023-06-22T04:44:10;10.30;;;7.20;;
34481;SDS011;20720;48.886;9.388;2023-06-22T04:46:37;7.95;;;5.85;;
34481;SDS011;20720;48.886;9.388;2023-06-22T04:49:04;9.00;;;6.45;;
34481;SDS011;20720;48.886;9.388;2023-06-22T04:51:31;11.88;;;6.78;;
34481;SDS011;20720;48.886;9.388;2023-06-22T04:53:57;11.60;;;6.43;;
34481;SDS011;20720;48.886;9.388;2023-06-22T04:56:26;10.10;;;6.63;;
34481;SDS011;20720;48.886;9.388;2023-06-22T04:58:53;10.23;;;6.25;;
34481;SDS011;20720;48.886;9.388;2023-06-22T05:01:20;10.45;;;7.10;;
34481;SDS011;20720;48.886;9.388;2023-06-22T05:03:47;9.68;;;6.03;;
34481;SDS011;20720;48.886;9.388;2023-06-22T05:06:13;8.57;;;6.07;;
34481;SDS011;20720;48.886;9.388;2023-06-22T05:08:39;11.73;;;6.30;;
34481;SDS011;20720;48.886;9.388;2023-06-22T05:11:05;13.73;;;6.63;;
34481;SDS011;20720;48.886;9.388;2023-06-22T05:13:30;9.23;;;6.03;;
34481;SDS011;20720;48.886;9.388;2023-06-22T05:15:56;9.32;;;5.57;;
34481;SDS011;20720;48.886;9.388;2023-06-22T05:18:27;9.32;;;5.57;;
34481;SDS011;20720;48.886;9.388;2023-06-22T05:20:54;8.43;;;5.47;;
34481;SDS011;20720;48.886;9.388;2023-06-22T05:23:19;8.93;;;5.45;;
34481;SDS011;20720;48.886;9.388;2023-06-22T05:25:44;8.98;;;5.55;;
34481;SDS011;20720;48.886;9.388;2023-06-22T05:28:10;10.02;;;5.80;;
34481;SDS011;20720;48.886;9.388;2023-06-22T05:30:36;8.07;;;5.22;;
34481;SDS011;20720;48.886;9.388;2023-06-22T05:33:02;7.07;;;5.05;;
34481;SDS011;20720;48.886;9.388;2023-06-22T05:35:28;6.20;;;4.55;;
34481;SDS011;20720;48.886;9.388;2023-06-22T05:37:54;7.97;;;5.35;;
34481;SDS011;20720;48.886;9.388;2023-06-22T05:40:20;10.57;;;5.40;;
34481;SDS011;20720;48.886;9.388;2023-06-22T05:42:46;7.63;;;5.35;;
34481;SDS011;20720;48.886;9.388;2023-06-22T05:45:12;6.85;;;4.63;;
34481;SDS011;20720;48.886;9.388;2023-06-22T05:47:38;7.95;;;4.70;;
34481;SDS011;20720;48.886;9.388;2023-06-22T05:50:04;8.98;;;4.50;;
34481;SDS011;20720;48.886;9.388;2023-06-22T05:52:32;5.65;;;4.60;;
34481;SDS011;20720;48.886;9.388;2023-06-22T05:54:57;6.25;;;4.70;;
34481;SDS011;20720;48.886;9.388;2023-06-22T05:57:22;5.93;;;4.22;;
34481;SDS011;20720;48.886;9.388;2023-06-22T05:59:48;6.28;;;4.30;;
34481;SDS011;20720;48.886;9.388;2023-06-22T06:02:13;8.67;;;4.37;;
34481;SDS011;20720;48.886;9.388;2023-06-22T06:04:42;8.82;;;4.35;;
34481;SDS011;20720;48.886;9.388;2023-06-22T06:07:07;10.02;;;4.38;;
34481;SDS011;20720;48.886;9.388;2023-06-22T06:09:32;7.20;;;4.30;;
34481;SDS011;20720;48.886;9.388;2023-06-22T06:11:57;9.23;;;4.50;;
34481;SDS011;20720;48.886;9.388;2023-06-22T06:14:23;7.65;;;3.72;;
34481;SDS011;20720;48.886;9.388;2023-06-22T06:16:48;5.10;;;3.58;;
34481;SDS011;20720;48.886;9.388;2023-06-22T06:19:14;9.30;;;4.35;;
34481;SDS011;20720;48.886;9.388;2023-06-22T06:21:39;5.90;;;3.60;;
34481;SDS011;20720;48.886;9.388;2023-06-22T06:24:05;5.75;;;3.78;;
34481;SDS011;20720;48.886;9.388;2023-06-22T06:26:30;6.20;;;3.75;;
34481;SDS011;20720;48.886;9.388;2023-06-22T06:28:58;9.13;;;4.07;;
34481;SDS011;20720;48.886;9.388;2023-06-22T06:31:24;5.75;;;3.75;;
34481;SDS011;20720;48.886;9.388;2023-06-22T06:33:52;7.97;;;4.07;;
34481;SDS011;20720;48.886;9.388;2023-06-22T06:36:19;4.70;;;3.60;;
34481;SDS011;20720;48.886;9.388;2023-06-22T06:38:44;5.93;;;3.40;;
34481;SDS011;20720;48.886;9.388;2023-06-22T06:41:12;5.35;;;3.38;;
34481;SDS011;20720;48.886;9.388;2023-06-22T06:43:38;5.75;;;3.40;;
34481;SDS011;20720;48.886;9.388;2023-06-22T06:46:03;5.20;;;3.47;;
34481;SDS011;20720;48.886;9.388;2023-06-22T06:48:28;6.40;;;3.60;;
34481;SDS011;20720;48.886;9.388;2023-06-22T06:50:53;4.70;;;3.30;;
34481;SDS011;20720;48.886;9.388;2023-06-22T06:53:18;5.73;;;3.37;;
34481;SDS011;20720;48.886;9.388;2023-06-22T06:55:44;5.38;;;3.25;;
34481;SDS011;20720;48.886;9.388;2023-06-22T06:58:10;8.00;;;3.97;;
34481;SDS011;20720;48.886;9.388;2023-06-22T07:00:38;4.55;;;3.47;;
34481;SDS011;20720;48.886;9.388;2023-06-22T07:03:04;5.18;;;3.80;;
34481;SDS011;20720;48.886;9.388;2023-06-22T07:05:29;5.85;;;3.70;;
34481;SDS011;20720;48.886;9.388;2023-06-22T07:07:54;5.27;;;3.23;;
34481;SDS011;20720;48.886;9.388;2023-06-22T07:10:19;5.55;;;2.92;;
34481;SDS011;20720;48.886;9.388;2023-06-22T07:12:45;5.72;;;3.58;;
34481;SDS011;20720;48.886;9.388;2023-06-22T07:15:10;6.65;;;3.60;;
34481;SDS011;20720;48.886;9.388;2023-06-22T07:17:37;6.22;;;3.70;;
34481;SDS011;20720;48.886;9.388;2023-06-22T07:20:05;5.63;;;3.60;;
34481;SDS011;20720;48.886;9.388;2023-06-22T07:22:37;4.75;;;3.35;;
34481;SDS011;20720;48.886;9.388;2023-06-22T07:25:03;4.78;;;3.42;;
34481;SDS011;20720;48.886;9.388;2023-06-22T07:27:34;4.65;;;3.08;;
34481;SDS011;20720;48.886;9.388;2023-06-22T07:30:01;6.05;;;3.22;;
34481;SDS011;20720;48.886;9.388;2023-06-22T07:32:27;6.75;;;3.60;;
34481;SDS011;20720;48.886;9.388;2023-06-22T07:34:54;6.85;;;3.60;;
34481;SDS011;20720;48.886;9.388;2023-06-22T07:37:19;5.22;;;3.83;;
34481;SDS011;20720;48.886;9.388;2023-06-22T07:39:44;5.32;;;3.33;;
34481;SDS011;20720;48.886;9.388;2023-06-22T07:42:11;9.70;;;3.83;;
34481;SDS011;20720;48.886;9.388;2023-06-22T07:44:36;6.15;;;3.33;;
34481;SDS011;20720;48.886;9.388;2023-06-22T07:47:01;6.53;;;3.30;;
34481;SDS011;20720;48.886;9.388;2023-06-22T07:49:27;5.40;;;3.15;;
34481;SDS011;20720;48.886;9.388;2023-06-22T07:51:53;5.85;;;2.92;;
34481;SDS011;20720;48.886;9.388;2023-06-22T07:54:19;4.03;;;2.73;;
34481;SDS011;20720;48.886;9.388;2023-06-22T07:56:44;4.95;;;3.22;;
34481;SDS011;20720;48.886;9.388;2023-06-22T07:59:11;5.53;;;3.35;;
34481;SDS011;20720;48.886;9.388;2023-06-22T08:01:36;5.78;;;3.38;;
34481;SDS011;20720;48.886;9.388;2023-06-22T08:04:01;4.50;;;3.17;;
34481;SDS011;20720;48.886;9.388;2023-06-22T08:06:28;6.25;;;3.08;;
34481;SDS011;20720;48.886;9.388;2023-06-22T08:08:55;6.05;;;3.20;;
34481;SDS011;20720;48.886;9.388;2023-06-22T08:11:23;4.80;;;2.80;;
34481;SDS011;20720;48.886;9.388;2023-06-22T08:13:50;6.30;;;2.92;;
34481;SDS011;20720;48.886;9.388;2023-06-22T08:16:15;6.50;;;3.47;;
34481;SDS011;20720;48.886;9.388;2023-06-22T08:18:40;5.50;;;3.17;;
34481;SDS011;20720;48.886;9.388;2023-06-22T08:21:06;5.57;;;3.10;;
34481;SDS011;20720;48.886;9.388;2023-06-22T08:23:31;7.93;;;2.70;;
34481;SDS011;20720;48.886;9.388;2023-06-22T08:25:56;6.25;;;3.00;;
34481;SDS011;20720;48.886;9.388;2023-06-22T08:28:21;5.70;;;2.95;;
34481;SDS011;20720;48.886;9.388;2023-06-22T08:30:46;5.70;;;2.95;;
34481;SDS011;20720;48.886;9.388;2023-06-22T08:33:12;4.47;;;2.40;;
34481;SDS011;20720;48.886;9.388;2023-06-22T08:35:37;6.07;;;3.13;;
34481;SDS011;20720;48.886;9.388;2023-06-22T08:38:03;4.82;;;2.90;;
34481;SDS011;20720;48.886;9.388;2023-06-22T08:40:28;6.10;;;3.10;;
34481;SDS011;20720;48.886;9.388;2023-06-22T08:42:54;5.22;;;2.80;;
34481;SDS011;20720;48.886;9.388;2023-06-22T08:45:20;5.90;;;2.92;;
34481;SDS011;20720;48.886;9.388;2023-06-22T08:47:45;6.53;;;2.47;;
34481;SDS011;20720;48.886;9.388;2023-06-22T08:50:11;5.30;;;2.90;;
34481;SDS011;20720;48.886;9.388;2023-06-22T08:52:37;6.07;;;2.90;;
34481;SDS011;20720;48.886;9.388;2023-06-22T08:55:06;9.45;;;2.85;;
34481;SDS011;20720;48.886;9.388;2023-06-22T08:57:32;5.45;;;2.90;;
34481;SDS011;20720;48.886;9.388;2023-06-22T08:59:57;4.22;;;2.80;;
34481;SDS011;20720;48.886;9.388;2023-06-22T09:02:23;6.97;;;2.78;;
34481;SDS011;20720;48.886;9.388;2023-06-22T09:04:49;7.78;;;3.13;;
34481;SDS011;20720;48.886;9.388;2023-06-22T09:07:21;6.40;;;2.97;;
34481;SDS011;20720;48.886;9.388;2023-06-22T09:09:48;6.25;;;3.08;;
34481;SDS011;20720;48.886;9.388;2023-06-22T09:12:13;6.72;;;3.00;;
34481;SDS011;20720;48.886;9.388;2023-06-22T09:14:39;7.30;;;3.28;;
34481;SDS011;20720;48.886;9.388;2023-06-22T09:17:04;6.67;;;2.77;;
34481;SDS011;20720;48.886;9.388;2023-06-22T09:19:30;8.48;;;3.13;;
34481;SDS011;20720;48.886;9.388;2023-06-22T09:21:55;10.10;;;3.23;;
34481;SDS011;20720;48.886;9.388;2023-06-22T09:24:20;6.53;;;3.05;;
34481;SDS011;20720;48.886;9.388;2023-06-22T09:26:45;8.93;;;3.30;;
34481;SDS011;20720;48.886;9.388;2023-06-22T09:29:10;8.03;;;3.40;;
34481;SDS011;20720;48.886;9.388;2023-06-22T09:31:36;6.97;;;2.95;;
34481;SDS011;20720;48.886;9.388;2023-06-22T09:34:01;6.43;;;2.80;;
34481;SDS011;20720;48.886;9.388;2023-06-22T09:36:27;8.33;;;2.97;;
34481;SDS011;20720;48.886;9.388;2023-06-22T09:38:52;6.38;;;3.13;;
34481;SDS011;20720;48.886;9.388;2023-06-22T09:41:20;5.13;;;3.00;;
34481;SDS011;20720;48.886;9.388;2023-06-22T09:43:49;7.68;;;3.30;;
34481;SDS011;20720;48.886;9.388;2023-06-22T09:46:15;5.53;;;2.85;;
34481;SDS011;20720;48.886;9.388;2023-06-22T09:48:40;6.93;;;2.85;;
34481;SDS011;20720;48.886;9.388;2023-06-22T09:51:06;5.63;;;2.80;;
34481;SDS011;20720;48.886;9.388;2023-06-22T09:53:31;5.00;;;2.63;;
34481;SDS011;20720;48.886;9.388;2023-06-22T09:55:56;6.20;;;3.10;;
34481;SDS011;20720;48.886;9.388;2023-06-22T09:58:22;6.63;;;3.00;;
34481;SDS011;20720;48.886;9.388;2023-06-22T10:00:47;5.70;;;2.70;;
34481;SDS011;20720;48.886;9.388;2023-06-22T10:03:12;4.83;;;2.40;;
34481;SDS011;20720;48.886;9.388;2023-06-22T10:05:38;5.80;;;3.07;;
34481;SDS011;20720;48.886;9.388;2023-06-22T10:08:04;10.43;;;3.22;;
34481;SDS011;20720;48.886;9.388;2023-06-22T10:10:29;7.80;;;2.83;;
34481;SDS011;20720;48.886;9.388;2023-06-22T10:12:56;8.00;;;3.43;;
34481;SDS011;20720;48.886;9.388;2023-06-22T10:15:22;5.22;;;3.10;;
34481;SDS011;20720;48.886;9.388;2023-06-22T10:17:48;7.78;;;3.65;;
34481;SDS011;20720;48.886;9.388;2023-06-22T10:20:13;6.18;;;3.28;;
34481;SDS011;20720;48.886;9.388;2023-06-22T10:22:40;9.80;;;3.20;;
34481;SDS011;20720;48.886;9.388;2023-06-22T10:25:06;8.32;;;3.50;;
34481;SDS011;20720;48.886;9.388;2023-06-22T10:27:32;6.43;;;3.15;;
34481;SDS011;20720;48.886;9.388;2023-06-22T10:29:57;6.88;;;3.13;;
34481;SDS011;20720;48.886;9.388;2023-06-22T10:32:23;12.33;;;2.93;;
34481;SDS011;20720;48.886;9.388;2023-06-22T10:34:48;7.43;;;3.33;;
34481;SDS011;20720;48.886;9.388;2023-06-22T10:37:13;9.10;;;2.87;;
34481;SDS011;20720;48.886;9.388;2023-06-22T10:39:39;7.70;;;3.30;;
34481;SDS011;20720;48.886;9.388;2023-06-22T10:42:04;5.80;;;3.00;;
34481;SDS011;20720;48.886;9.388;2023-06-22T10:44:29;5.03;;;2.75;;
34481;SDS011;20720;48.886;9.388;2023-06-22T10:46:55;5.07;;;2.50;;
34481;SDS011;20720;48.886;9.388;2023-06-22T10:49:20;7.90;;;3.20;;
34481;SDS011;20720;48.886;9.388;2023-06-22T10:51:45;7.57;;;2.80;;
34481;SDS011;20720;48.886;9.388;2023-06-22T10:54:11;5.75;;;2.92;;
34481;SDS011;20720;48.886;9.388;2023-06-22T10:56:38;5.78;;;2.83;;
34481;SDS011;20720;48.886;9.388;2023-06-22T10:59:04;6.53;;;3.20;;
34481;SDS011;20720;48.886;9.388;2023-06-22T11:01:29;7.43;;;3.20;;
34481;SDS011;20720;48.886;9.388;2023-06-22T11:03:56;7.50;;;3.28;;
34481;SDS011;20720;48.886;9.388;2023-06-22T11:06:21;7.68;;;3.22;;
34481;SDS011;20720;48.886;9.388;2023-06-22T11:08:46;7.13;;;3.47;;
34481;SDS011;20720;48.886;9.388;2023-06-22T11:11:11;6.20;;;3.17;;
34481;SDS011;20720;48.886;9.388;2023-06-22T11:13:37;5.95;;;3.08;;
34481;SDS011;20720;48.886;9.388;2023-06-22T11:16:02;7.10;;;3.20;;
34481;SDS011;20720;48.886;9.388;2023-06-22T11:18:28;8.32;;;3.40;;
34481;SDS011;20720;48.886;9.388;2023-06-22T11:20:53;8.40;;;4.28;;
34481;SDS011;20720;48.886;9.388;2023-06-22T11:23:19;8.55;;;3.50;;
34481;SDS011;20720;48.886;9.388;2023-06-22T11:25:44;8.65;;;3.20;;
34481;SDS011;20720;48.886;9.388;2023-06-22T11:28:11;6.82;;;3.38;;
34481;SDS011;20720;48.886;9.388;2023-06-22T11:30:36;6.47;;;2.92;;
34481;SDS011;20720;48.886;9.388;2023-06-22T11:33:01;9.05;;;3.13;;
34481;SDS011;20720;48.886;9.388;2023-06-22T11:35:27;4.65;;;2.90;;
34481;SDS011;20720;48.886;9.388;2023-06-22T11:37:52;6.43;;;3.00;;
34481;SDS011;20720;48.886;9.388;2023-06-22T11:40:18;9.35;;;3.45;;
34481;SDS011;20720;48.886;9.388;2023-06-22T11:42:43;8.63;;;3.22;;
34481;SDS011;20720;48.886;9.388;2023-06-22T11:45:08;5.60;;;3.20;;
34481;SDS011;20720;48.886;9.388;2023-06-22T11:47:34;6.63;;;3.17;;
34481;SDS011;20720;48.886;9.388;2023-06-22T11:50:01;6.25;;;3.10;;
34481;SDS011;20720;48.886;9.388;2023-06-22T11:52:26;12.35;;;3.70;;
34481;SDS011;20720;48.886;9.388;2023-06-22T11:54:52;9.43;;;3.20;;
34481;SDS011;20720;48.886;9.388;2023-06-22T11:57:17;9.60;;;3.30;;
34481;SDS011;20720;48.886;9.388;2023-06-22T11:59:42;6.50;;;3.50;;
34481;SDS011;20720;48.886;9.388;2023-06-22T12:02:08;9.02;;;3.55;;
34481;SDS011;20720;48.886;9.388;2023-06-22T12:04:34;9.10;;;3.13;;
34481;SDS011;20720;48.886;9.388;2023-06-22T12:07:00;7.60;;;3.65;;
34481;SDS011;20720;48.886;9.388;2023-06-22T12:09:25;6.60;;;3.40;;
34481;SDS011;20720;48.886;9.388;2023-06-22T12:11:51;8.70;;;3.40;;
34481;SDS011;20720;48.886;9.388;2023-06-22T12:14:16;6.87;;;3.30;;
34481;SDS011;20720;48.886;9.388;2023-06-22T12:16:41;5.95;;;3.20;;
34481;SDS011;20720;48.886;9.388;2023-06-22T12:19:08;6.78;;;2.97;;
34481;SDS011;20720;48.886;9.388;2023-06-22T12:21:34;7.57;;;3.55;;
34481;SDS011;20720;48.886;9.388;2023-06-22T12:23:59;7.57;;;3.47;;
34481;SDS011;20720;48.886;9.388;2023-06-22T12:26:24;9.00;;;3.50;;
34481;SDS011;20720;48.886;9.388;2023-06-22T12:28:49;7.18;;;3.25;;
34481;SDS011;20720;48.886;9.388;2023-06-22T12:31:15;9.27;;;3.83;;
34481;SDS011;20720;48.886;9.388;2023-06-22T12:33:40;9.00;;;3.28;;
34481;SDS011;20720;48.886;9.388;2023-06-22T12:36:06;9.40;;;3.67;;
34481;SDS011;20720;48.886;9.388;2023-06-22T12:38:31;8.15;;;3.00;;
34481;SDS011;20720;48.886;9.388;2023-06-22T12:40:57;8.67;;;3.80;;
34481;SDS011;20720;48.886;9.388;2023-06-22T12:43:22;9.23;;;3.80;;
34481;SDS011;20720;48.886;9.388;2023-06-22T12:45:47;8.00;;;3.17;;
34481;SDS011;20720;48.886;9.388;2023-06-22T12:48:12;7.90;;;3.47;;
34481;SDS011;20720;48.886;9.388;2023-06-22T12:50:38;9.32;;;3.30;;
34481;SDS011;20720;48.886;9.388;2023-06-22T12:53:03;6.60;;;3.10;;
34481;SDS011;20720;48.886;9.388;2023-06-22T12:55:31;7.43;;;3.47;;
34481;SDS011;20720;48.886;9.388;2023-06-22T12:57:56;6.07;;;3.67;;
34481;SDS011;20720;48.886;9.388;2023-06-22T13:00:21;5.32;;;3.03;;
34481;SDS011;20720;48.886;9.388;2023-06-22T13:02:46;10.10;;;3.47;;
34481;SDS011;20720;48.886;9.388;2023-06-22T13:05:12;8.30;;;3.83;;
34481;SDS011;20720;48.886;9.388;2023-06-22T13:07:37;7.30;;;3.60;;
34481;SDS011;20720;48.886;9.388;2023-06-22T13:10:03;9.73;;;3.92;;
34481;SDS011;20720;48.886;9.388;2023-06-22T13:12:28;7.03;;;3.60;;
34481;SDS011;20720;48.886;9.388;2023-06-22T13:14:53;7.65;;;3.78;;
34481;SDS011;20720;48.886;9.388;2023-06-22T13:17:19;9.50;;;3.60;;
34481;SDS011;20720;48.886;9.388;2023-06-22T13:19:44;9.30;;;3.80;;
34481;SDS011;20720;48.886;9.388;2023-06-22T13:22:29;8.40;;;3.58;;
34481;SDS011;20720;48.886;9.388;2023-06-22T13:25:04;6.18;;;3.53;;
34481;SDS011;20720;48.886;9.388;2023-06-22T13:27:30;6.78;;;3.40;;
34481;SDS011;20720;48.886;9.388;2023-06-22T13:29:55;7.03;;;3.33;;
34481;SDS011;20720;48.886;9.388;2023-06-22T13:32:20;7.70;;;3.53;;
34481;SDS011;20720;48.886;9.388;2023-06-22T13:34:46;8.45;;;3.95;;
34481;SDS011;20720;48.886;9.388;2023-06-22T13:37:11;5.38;;;3.20;;
34481;SDS011;20720;48.886;9.388;2023-06-22T13:39:36;6.65;;;3.40;;
34481;SDS011;20720;48.886;9.388;2023-06-22T13:42:01;7.67;;;3.63;;
34481;SDS011;20720;48.886;9.388;2023-06-22T13:44:27;7.50;;;3.75;;
34481;SDS011;20720;48.886;9.388;2023-06-22T13:46:54;7.38;;;3.60;;
34481;SDS011;20720;48.886;9.388;2023-06-22T13:49:20;8.35;;;4.03;;
34481;SDS011;20720;48.886;9.388;2023-06-22T13:51:46;9.30;;;3.97;;
34481;SDS011;20720;48.886;9.388;2023-06-22T13:54:13;10.35;;;4.15;;
34481;SDS011;20720;48.886;9.388;2023-06-22T13:56:38;7.85;;;3.58;;
34481;SDS011;20720;48.886;9.388;2023-06-22T13:59:03;8.15;;;3.63;;
34481;SDS011;20720;48.886;9.388;2023-06-22T14:01:29;7.13;;;3.77;;
34481;SDS011;20720;48.886;9.388;2023-06-22T14:03:54;7.10;;;3.60;;
34481;SDS011;20720;48.886;9.388;2023-06-22T14:06:19;7.28;;;3.47;;
34481;SDS011;20720;48.886;9.388;2023-06-22T14:08:45;7.07;;;3.80;;
34481;SDS011;20720;48.886;9.388;2023-06-22T14:11:10;9.70;;;3.67;;
34481;SDS011;20720;48.886;9.388;2023-06-22T14:13:35;8.65;;;4.10;;
34481;SDS011;20720;48.886;9.388;2023-06-22T14:16:01;8.97;;;3.80;;
34481;SDS011;20720;48.886;9.388;2023-06-22T14:18:26;10.93;;;4.03;;
34481;SDS011;20720;48.886;9.388;2023-06-22T14:20:52;11.60;;;3.83;;
34481;SDS011;20720;48.886;9.388;2023-06-22T14:23:17;7.07;;;3.40;;
34481;SDS011;20720;48.886;9.388;2023-06-22T14:25:42;8.47;;;3.83;;
34481;SDS011;20720;48.886;9.388;2023-06-22T14:28:07;6.93;;;3.83;;
34481;SDS011;20720;48.886;9.388;2023-06-22T14:30:33;8.90;;;4.05;;
34481;SDS011;20720;48.886;9.388;2023-06-22T14:32:58;9.10;;;3.63;;
34481;SDS011;20720;48.886;9.388;2023-06-22T14:35:23;5.73;;;3.00;;
34481;SDS011;20720;48.886;9.388;2023-06-22T14:37:49;7.05;;;3.53;;
34481;SDS011;20720;48.886;9.388;2023-06-22T14:40:14;8.98;;;3.72;;
34481;SDS011;20720;48.886;9.388;2023-06-22T14:42:40;8.32;;;3.40;;
34481;SDS011;20720;48.886;9.388;2023-06-22T14:45:05;12.07;;;3.90;;
34481;SDS011;20720;48.886;9.388;2023-06-22T14:47:31;7.50;;;3.47;;
34481;SDS011;20720;48.886;9.388;2023-06-22T14:49:56;6.50;;;3.40;;